sensor_id;sensor_type;location;lat;lon;timestamp;temperature;humidity
12426;DHT22;6277;49.824;9.562;2023-12-14T00:00:18;8.60;83.30
12426;DHT22;6277;49.824;9.562;2023-12-14T00:02:44;8.60;83.40
12426;DHT22;6277;49.824;9.562;2023-12-14T00:05:10;8.50;83.50
12426;DHT22;6277;49.824;9.562;2023-12-14T00:07:35;8.50;83.60
12426;DHT22;6277;49.824;9.562;2023-12-14T00:10:01;8.40;83.60
12426;DHT22;6277;49.824;9.562;2023-12-14T00:12:28;8.40;83.70
12426;DHT22;6277;49.824;9.562;2023-12-14T00:14:54;8.40;83.90
12426;DHT22;6277;49.824;9.562;2023-12-14T00:17:19;8.40;83.90
12426;DHT22;6277;49.824;9.562;2023-12-14T00:19:45;8.40;83.90
12426;DHT22;6277;49.824;9.562;2023-12-14T00:22:10;8.30;84.00
12426;DHT22;6277;49.824;9.562;2023-12-14T00:24:36;8.30;84.10
12426;DHT22;6277;49.824;9.562;2023-12-14T00:27:01;8.30;84.10
12426;DHT22;6277;49.824;9.562;2023-12-14T00:29:27;8.30;84.30
12426;DHT22;6277;49.824;9.562;2023-12-14T00:31:52;8.30;84.40
12426;DHT22;6277;49.824;9.562;2023-12-14T00:34:18;8.40;84.50
12426;DHT22;6277;49.824;9.562;2023-12-14T00:36:43;8.40;84.40
12426;DHT22;6277;49.824;9.562;2023-12-14T00:39:09;8.40;84.40
12426;DHT22;6277;49.824;9.562;2023-12-14T00:41:34;8.40;84.50
12426;DHT22;6277;49.824;9.562;2023-12-14T00:44:00;8.40;84.60
12426;DHT22;6277;49.824;9.562;2023-12-14T00:46:25;8.40;84.60
12426;DHT22;6277;49.824;9.562;2023-12-14T00:48:51;8.40;84.60
12426;DHT22;6277;49.824;9.562;2023-12-14T00:51:16;8.40;84.60
12426;DHT22;6277;49.824;9.562;2023-12-14T00:53:42;8.50;84.50
12426;DHT22;6277;49.824;9.562;2023-12-14T00:56:08;8.50;84.40
12426;DHT22;6277;49.824;9.562;2023-12-14T00:58:34;8.50;84.30
12426;DHT22;6277;49.824;9.562;2023-12-14T01:00:59;8.50;84.10
12426;DHT22;6277;49.824;9.562;2023-12-14T01:03:25;8.50;84.00
12426;DHT22;6277;49.824;9.562;2023-12-14T01:05:51;8.50;84.00
12426;DHT22;6277;49.824;9.562;2023-12-14T01:08:16;8.50;83.90
12426;DHT22;6277;49.824;9.562;2023-12-14T01:10:42;8.40;83.80
12426;DHT22;6277;49.824;9.562;2023-12-14T01:13:07;8.40;83.90
12426;DHT22;6277;49.824;9.562;2023-12-14T01:15:33;8.40;84.00
12426;DHT22;6277;49.824;9.562;2023-12-14T01:17:58;8.40;84.00
12426;DHT22;6277;49.824;9.562;2023-12-14T01:20:24;8.40;84.10
12426;DHT22;6277;49.824;9.562;2023-12-14T01:22:50;8.40;84.10
12426;DHT22;6277;49.824;9.562;2023-12-14T01:25:15;8.40;84.10
12426;DHT22;6277;49.824;9.562;2023-12-14T01:27:41;8.40;84.10
12426;DHT22;6277;49.824;9.562;2023-12-14T01:30:07;8.40;84.00
12426;DHT22;6277;49.824;9.562;2023-12-14T01:32:33;8.40;84.20
12426;DHT22;6277;49.824;9.562;2023-12-14T01:34:58;8.40;84.20
12426;DHT22;6277;49.824;9.562;2023-12-14T01:37:24;8.40;84.30
12426;DHT22;6277;49.824;9.562;2023-12-14T01:39:49;8.40;84.40
12426;DHT22;6277;49.824;9.562;2023-12-14T01:42:15;8.40;84.40
12426;DHT22;6277;49.824;9.562;2023-12-14T01:44:40;8.40;84.40
12426;DHT22;6277;49.824;9.562;2023-12-14T01:47:06;8.50;84.60
12426;DHT22;6277;49.824;9.562;2023-12-14T01:49:31;8.50;84.50
12426;DHT22;6277;49.824;9.562;2023-12-14T01:51:57;8.50;84.50
12426;DHT22;6277;49.824;9.562;2023-12-14T01:54:22;8.50;84.40
12426;DHT22;6277;49.824;9.562;2023-12-14T01:56:48;8.50;84.40
12426;DHT22;6277;49.824;9.562;2023-12-14T01:59:13;8.60;84.50
12426;DHT22;6277;49.824;9.562;2023-12-14T02:01:46;8.60;84.50
12426;DHT22;6277;49.824;9.562;2023-12-14T02:04:13;8.60;84.40
12426;DHT22;6277;49.824;9.562;2023-12-14T02:06:39;8.60;84.40
12426;DHT22;6277;49.824;9.562;2023-12-14T02:09:05;8.60;84.50
12426;DHT22;6277;49.824;9.562;2023-12-14T02:11:31;8.70;84.50
12426;DHT22;6277;49.824;9.562;2023-12-14T02:13:56;8.70;84.60
12426;DHT22;6277;49.824;9.562;2023-12-14T02:16:22;8.70;84.60
12426;DHT22;6277;49.824;9.562;2023-12-14T02:18:48;8.70;84.60
12426;DHT22;6277;49.824;9.562;2023-12-14T02:21:13;8.80;84.70
12426;DHT22;6277;49.824;9.562;2023-12-14T02:23:44;8.80;84.70
12426;DHT22;6277;49.824;9.562;2023-12-14T02:26:10;8.80;84.60
12426;DHT22;6277;49.824;9.562;2023-12-14T02:28:35;8.80;84.50
12426;DHT22;6277;49.824;9.562;2023-12-14T02:31:01;8.90;84.60
12426;DHT22;6277;49.824;9.562;2023-12-14T02:33:26;8.90;84.50
12426;DHT22;6277;49.824;9.562;2023-12-14T02:35:52;8.80;84.40
12426;DHT22;6277;49.824;9.562;2023-12-14T02:38:17;8.90;84.50
12426;DHT22;6277;49.824;9.562;2023-12-14T02:40:43;8.90;84.50
12426;DHT22;6277;49.824;9.562;2023-12-14T02:43:08;8.90;84.50
12426;DHT22;6277;49.824;9.562;2023-12-14T02:45:34;8.90;84.50
12426;DHT22;6277;49.824;9.562;2023-12-14T02:47:59;9.00;84.50
12426;DHT22;6277;49.824;9.562;2023-12-14T02:50:25;8.90;84.40
12426;DHT22;6277;49.824;9.562;2023-12-14T02:52:50;9.00;84.30
12426;DHT22;6277;49.824;9.562;2023-12-14T02:55:16;9.00;84.20
12426;DHT22;6277;49.824;9.562;2023-12-14T02:57:41;8.90;84.00
12426;DHT22;6277;49.824;9.562;2023-12-14T03:00:07;8.90;84.00
12426;DHT22;6277;49.824;9.562;2023-12-14T03:02:34;8.90;84.00
12426;DHT22;6277;49.824;9.562;2023-12-14T03:04:59;8.90;83.90
12426;DHT22;6277;49.824;9.562;2023-12-14T03:07:25;8.80;83.80
12426;DHT22;6277;49.824;9.562;2023-12-14T03:09:50;8.80;83.80
12426;DHT22;6277;49.824;9.562;2023-12-14T03:12:16;8.80;83.80
12426;DHT22;6277;49.824;9.562;2023-12-14T03:14:41;8.80;83.70
12426;DHT22;6277;49.824;9.562;2023-12-14T03:17:07;8.80;83.80
12426;DHT22;6277;49.824;9.562;2023-12-14T03:19:39;8.80;83.80
12426;DHT22;6277;49.824;9.562;2023-12-14T03:22:05;8.70;83.80
12426;DHT22;6277;49.824;9.562;2023-12-14T03:24:31;8.70;83.80
12426;DHT22;6277;49.824;9.562;2023-12-14T03:26:56;8.70;83.80
12426;DHT22;6277;49.824;9.562;2023-12-14T03:29:22;8.70;83.90
12426;DHT22;6277;49.824;9.562;2023-12-14T03:31:48;8.70;84.00
12426;DHT22;6277;49.824;9.562;2023-12-14T03:34:13;8.70;84.00
12426;DHT22;6277;49.824;9.562;2023-12-14T03:36:39;8.70;84.10
12426;DHT22;6277;49.824;9.562;2023-12-14T03:39:04;8.70;84.00
12426;DHT22;6277;49.824;9.562;2023-12-14T03:41:31;8.70;84.10
12426;DHT22;6277;49.824;9.562;2023-12-14T03:43:57;8.80;84.10
12426;DHT22;6277;49.824;9.562;2023-12-14T03:46:22;8.70;84.10
12426;DHT22;6277;49.824;9.562;2023-12-14T03:48:48;8.70;84.10
12426;DHT22;6277;49.824;9.562;2023-12-14T03:51:13;8.80;84.10
12426;DHT22;6277;49.824;9.562;2023-12-14T03:53:39;8.70;84.00
12426;DHT22;6277;49.824;9.562;2023-12-14T03:56:05;8.80;84.00
12426;DHT22;6277;49.824;9.562;2023-12-14T03:58:31;8.80;83.90
12426;DHT22;6277;49.824;9.562;2023-12-14T04:00:56;8.80;84.00
12426;DHT22;6277;49.824;9.562;2023-12-14T04:03:22;8.80;84.00
12426;DHT22;6277;49.824;9.562;2023-12-14T04:05:47;8.80;84.00
12426;DHT22;6277;49.824;9.562;2023-12-14T04:08:13;8.80;84.10
12426;DHT22;6277;49.824;9.562;2023-12-14T04:10:38;8.80;84.20
12426;DHT22;6277;49.824;9.562;2023-12-14T04:13:04;8.80;84.20
12426;DHT22;6277;49.824;9.562;2023-12-14T04:15:29;8.80;84.30
12426;DHT22;6277;49.824;9.562;2023-12-14T04:17:55;8.80;84.30
12426;DHT22;6277;49.824;9.562;2023-12-14T04:20:20;8.80;84.40
12426;DHT22;6277;49.824;9.562;2023-12-14T04:22:46;8.90;84.50
12426;DHT22;6277;49.824;9.562;2023-12-14T04:25:12;8.90;84.50
12426;DHT22;6277;49.824;9.562;2023-12-14T04:27:38;8.90;84.60
12426;DHT22;6277;49.824;9.562;2023-12-14T04:30:04;8.90;84.60
12426;DHT22;6277;49.824;9.562;2023-12-14T04:32:30;9.00;84.60
12426;DHT22;6277;49.824;9.562;2023-12-14T04:34:55;9.00;84.60
12426;DHT22;6277;49.824;9.562;2023-12-14T04:37:21;9.10;84.70
12426;DHT22;6277;49.824;9.562;2023-12-14T04:39:46;9.10;84.70
12426;DHT22;6277;49.824;9.562;2023-12-14T04:42:12;9.10;84.60
12426;DHT22;6277;49.824;9.562;2023-12-14T04:44:37;9.10;84.50
12426;DHT22;6277;49.824;9.562;2023-12-14T04:47:03;9.10;84.50
12426;DHT22;6277;49.824;9.562;2023-12-14T04:49:29;9.20;84.50
12426;DHT22;6277;49.824;9.562;2023-12-14T04:51:54;9.20;84.40
12426;DHT22;6277;49.824;9.562;2023-12-14T04:54:20;9.20;84.40
12426;DHT22;6277;49.824;9.562;2023-12-14T04:56:46;9.20;84.30
12426;DHT22;6277;49.824;9.562;2023-12-14T04:59:12;9.20;84.20
12426;DHT22;6277;49.824;9.562;2023-12-14T05:01:37;9.20;84.30
12426;DHT22;6277;49.824;9.562;2023-12-14T05:04:03;9.20;84.20
12426;DHT22;6277;49.824;9.562;2023-12-14T05:06:29;9.20;84.20
12426;DHT22;6277;49.824;9.562;2023-12-14T05:08:55;9.20;84.20
12426;DHT22;6277;49.824;9.562;2023-12-14T05:11:21;9.20;84.20
12426;DHT22;6277;49.824;9.562;2023-12-14T05:13:46;9.20;84.20
12426;DHT22;6277;49.824;9.562;2023-12-14T05:16:15;9.20;84.20
12426;DHT22;6277;49.824;9.562;2023-12-14T05:18:40;9.20;84.10
12426;DHT22;6277;49.824;9.562;2023-12-14T05:21:06;9.20;84.10
12426;DHT22;6277;49.824;9.562;2023-12-14T05:23:32;9.20;84.10
12426;DHT22;6277;49.824;9.562;2023-12-14T05:25:57;9.20;84.10
12426;DHT22;6277;49.824;9.562;2023-12-14T05:28:23;9.20;84.20
12426;DHT22;6277;49.824;9.562;2023-12-14T05:30:49;9.20;84.20
12426;DHT22;6277;49.824;9.562;2023-12-14T05:33:14;9.20;84.10
12426;DHT22;6277;49.824;9.562;2023-12-14T05:35:40;9.20;84.30
12426;DHT22;6277;49.824;9.562;2023-12-14T05:38:05;9.20;84.20
12426;DHT22;6277;49.824;9.562;2023-12-14T05:40:31;9.20;84.20
12426;DHT22;6277;49.824;9.562;2023-12-14T05:42:57;9.20;84.20
12426;DHT22;6277;49.824;9.562;2023-12-14T05:45:23;9.20;84.40
12426;DHT22;6277;49.824;9.562;2023-12-14T05:47:48;9.20;84.30
12426;DHT22;6277;49.824;9.562;2023-12-14T05:50:14;9.20;84.30
12426;DHT22;6277;49.824;9.562;2023-12-14T05:52:40;9.30;84.40
12426;DHT22;6277;49.824;9.562;2023-12-14T05:55:09;9.20;84.40
12426;DHT22;6277;49.824;9.562;2023-12-14T05:57:37;9.20;84.40
12426;DHT22;6277;49.824;9.562;2023-12-14T06:00:05;9.30;84.50
12426;DHT22;6277;49.824;9.562;2023-12-14T06:02:31;9.30;84.50
12426;DHT22;6277;49.824;9.562;2023-12-14T06:04:57;9.30;84.30
12426;DHT22;6277;49.824;9.562;2023-12-14T06:07:23;9.30;84.30
12426;DHT22;6277;49.824;9.562;2023-12-14T06:09:49;9.20;84.20
12426;DHT22;6277;49.824;9.562;2023-12-14T06:12:14;9.20;84.20
12426;DHT22;6277;49.824;9.562;2023-12-14T06:14:40;9.20;84.10
12426;DHT22;6277;49.824;9.562;2023-12-14T06:17:06;9.20;84.10
12426;DHT22;6277;49.824;9.562;2023-12-14T06:19:31;9.20;84.10
12426;DHT22;6277;49.824;9.562;2023-12-14T06:21:57;9.10;83.90
12426;DHT22;6277;49.824;9.562;2023-12-14T06:24:23;9.10;83.70
12426;DHT22;6277;49.824;9.562;2023-12-14T06:26:49;9.10;83.60
12426;DHT22;6277;49.824;9.562;2023-12-14T06:29:14;9.00;83.60
12426;DHT22;6277;49.824;9.562;2023-12-14T06:31:40;9.00;83.70
12426;DHT22;6277;49.824;9.562;2023-12-14T06:34:05;8.90;83.60
12426;DHT22;6277;49.824;9.562;2023-12-14T06:36:31;8.90;83.60
12426;DHT22;6277;49.824;9.562;2023-12-14T06:38:58;8.80;83.50
12426;DHT22;6277;49.824;9.562;2023-12-14T06:41:24;8.80;83.50
12426;DHT22;6277;49.824;9.562;2023-12-14T06:43:50;8.80;83.60
12426;DHT22;6277;49.824;9.562;2023-12-14T06:46:16;8.70;83.60
12426;DHT22;6277;49.824;9.562;2023-12-14T06:48:42;8.70;83.70
12426;DHT22;6277;49.824;9.562;2023-12-14T06:51:07;8.70;83.80
12426;DHT22;6277;49.824;9.562;2023-12-14T06:53:34;8.70;83.80
12426;DHT22;6277;49.824;9.562;2023-12-14T06:56:00;8.60;83.80
12426;DHT22;6277;49.824;9.562;2023-12-14T06:58:28;8.60;83.80
12426;DHT22;6277;49.824;9.562;2023-12-14T07:00:54;8.60;83.80
12426;DHT22;6277;49.824;9.562;2023-12-14T07:03:19;8.60;84.00
12426;DHT22;6277;49.824;9.562;2023-12-14T07:05:45;8.60;84.80
12426;DHT22;6277;49.824;9.562;2023-12-14T07:08:11;8.60;84.20
12426;DHT22;6277;49.824;9.562;2023-12-14T07:10:36;8.60;84.30
12426;DHT22;6277;49.824;9.562;2023-12-14T07:13:02;8.60;84.40
12426;DHT22;6277;49.824;9.562;2023-12-14T07:15:27;8.70;84.50
12426;DHT22;6277;49.824;9.562;2023-12-14T07:17:53;8.70;84.60
12426;DHT22;6277;49.824;9.562;2023-12-14T07:20:18;8.70;84.60
12426;DHT22;6277;49.824;9.562;2023-12-14T07:22:44;8.80;84.70
12426;DHT22;6277;49.824;9.562;2023-12-14T07:25:09;8.80;84.70
12426;DHT22;6277;49.824;9.562;2023-12-14T07:27:35;8.90;84.70
12426;DHT22;6277;49.824;9.562;2023-12-14T07:30:00;8.90;84.80
12426;DHT22;6277;49.824;9.562;2023-12-14T07:32:26;8.90;84.80
12426;DHT22;6277;49.824;9.562;2023-12-14T07:34:52;9.00;84.90
12426;DHT22;6277;49.824;9.562;2023-12-14T07:37:18;9.00;84.90
12426;DHT22;6277;49.824;9.562;2023-12-14T07:39:43;9.10;85.00
12426;DHT22;6277;49.824;9.562;2023-12-14T07:42:09;9.10;85.00
12426;DHT22;6277;49.824;9.562;2023-12-14T07:44:34;9.20;84.90
12426;DHT22;6277;49.824;9.562;2023-12-14T07:47:01;9.20;84.80
12426;DHT22;6277;49.824;9.562;2023-12-14T07:49:27;9.20;84.60
12426;DHT22;6277;49.824;9.562;2023-12-14T07:51:53;9.30;84.60
12426;DHT22;6277;49.824;9.562;2023-12-14T07:54:19;9.30;84.60
12426;DHT22;6277;49.824;9.562;2023-12-14T07:56:44;9.30;84.50
12426;DHT22;6277;49.824;9.562;2023-12-14T07:59:11;9.30;84.50
12426;DHT22;6277;49.824;9.562;2023-12-14T08:01:37;9.30;84.50
12426;DHT22;6277;49.824;9.562;2023-12-14T08:04:03;9.40;84.60
12426;DHT22;6277;49.824;9.562;2023-12-14T08:06:29;9.40;84.60
12426;DHT22;6277;49.824;9.562;2023-12-14T08:08:55;9.40;84.50
12426;DHT22;6277;49.824;9.562;2023-12-14T08:11:23;9.40;84.50
12426;DHT22;6277;49.824;9.562;2023-12-14T08:13:49;9.40;84.60
12426;DHT22;6277;49.824;9.562;2023-12-14T08:16:14;9.50;84.70
12426;DHT22;6277;49.824;9.562;2023-12-14T08:18:42;9.50;84.80
12426;DHT22;6277;49.824;9.562;2023-12-14T08:21:10;9.50;84.90
12426;DHT22;6277;49.824;9.562;2023-12-14T08:23:35;9.60;85.10
12426;DHT22;6277;49.824;9.562;2023-12-14T08:26:01;9.70;85.20
12426;DHT22;6277;49.824;9.562;2023-12-14T08:28:27;9.70;85.30
12426;DHT22;6277;49.824;9.562;2023-12-14T08:30:52;9.80;85.50
12426;DHT22;6277;49.824;9.562;2023-12-14T08:33:18;9.90;85.60
12426;DHT22;6277;49.824;9.562;2023-12-14T08:35:43;10.00;85.60
12426;DHT22;6277;49.824;9.562;2023-12-14T08:38:10;10.00;85.60
12426;DHT22;6277;49.824;9.562;2023-12-14T08:40:36;10.10;85.60
12426;DHT22;6277;49.824;9.562;2023-12-14T08:43:02;10.20;85.50
12426;DHT22;6277;49.824;9.562;2023-12-14T08:45:28;10.20;85.40
12426;DHT22;6277;49.824;9.562;2023-12-14T08:47:54;10.30;85.30
12426;DHT22;6277;49.824;9.562;2023-12-14T08:50:19;10.30;85.20
12426;DHT22;6277;49.824;9.562;2023-12-14T08:52:45;10.40;85.20
12426;DHT22;6277;49.824;9.562;2023-12-14T08:55:11;10.40;85.10
12426;DHT22;6277;49.824;9.562;2023-12-14T08:57:36;10.40;85.00
12426;DHT22;6277;49.824;9.562;2023-12-14T09:00:02;10.40;84.90
12426;DHT22;6277;49.824;9.562;2023-12-14T09:02:32;10.40;84.90
12426;DHT22;6277;49.824;9.562;2023-12-14T09:04:58;10.40;84.90
12426;DHT22;6277;49.824;9.562;2023-12-14T09:07:23;10.40;85.00
12426;DHT22;6277;49.824;9.562;2023-12-14T09:09:49;10.40;85.00
12426;DHT22;6277;49.824;9.562;2023-12-14T09:12:14;10.50;85.20
12426;DHT22;6277;49.824;9.562;2023-12-14T09:14:40;10.50;85.20
12426;DHT22;6277;49.824;9.562;2023-12-14T09:17:05;10.50;85.30
12426;DHT22;6277;49.824;9.562;2023-12-14T09:19:31;10.60;85.20
12426;DHT22;6277;49.824;9.562;2023-12-14T09:21:57;10.60;85.20
12426;DHT22;6277;49.824;9.562;2023-12-14T09:24:23;10.60;85.00
12426;DHT22;6277;49.824;9.562;2023-12-14T09:26:48;10.70;84.90
12426;DHT22;6277;49.824;9.562;2023-12-14T09:29:14;10.70;84.80
12426;DHT22;6277;49.824;9.562;2023-12-14T09:31:44;10.70;84.60
12426;DHT22;6277;49.824;9.562;2023-12-14T09:34:10;10.70;84.50
12426;DHT22;6277;49.824;9.562;2023-12-14T09:36:37;10.70;84.60
12426;DHT22;6277;49.824;9.562;2023-12-14T09:39:02;10.70;84.60
12426;DHT22;6277;49.824;9.562;2023-12-14T09:41:28;10.70;84.50
12426;DHT22;6277;49.824;9.562;2023-12-14T09:43:54;10.60;84.40
12426;DHT22;6277;49.824;9.562;2023-12-14T09:46:21;10.60;84.30
12426;DHT22;6277;49.824;9.562;2023-12-14T09:48:50;10.60;84.40
12426;DHT22;6277;49.824;9.562;2023-12-14T09:51:16;10.60;84.40
12426;DHT22;6277;49.824;9.562;2023-12-14T09:53:42;10.60;84.50
12426;DHT22;6277;49.824;9.562;2023-12-14T09:56:07;10.60;84.60
12426;DHT22;6277;49.824;9.562;2023-12-14T09:58:33;10.60;84.60
12426;DHT22;6277;49.824;9.562;2023-12-14T10:00:59;10.60;84.70
12426;DHT22;6277;49.824;9.562;2023-12-14T10:03:29;10.60;84.80
12426;DHT22;6277;49.824;9.562;2023-12-14T10:05:55;10.60;84.90
12426;DHT22;6277;49.824;9.562;2023-12-14T10:08:22;10.70;84.90
12426;DHT22;6277;49.824;9.562;2023-12-14T10:10:50;10.70;84.90
12426;DHT22;6277;49.824;9.562;2023-12-14T10:13:37;10.70;84.80
12426;DHT22;6277;49.824;9.562;2023-12-14T10:16:03;10.80;84.70
12426;DHT22;6277;49.824;9.562;2023-12-14T10:18:31;10.80;84.80
12426;DHT22;6277;49.824;9.562;2023-12-14T10:20:59;10.80;84.70
12426;DHT22;6277;49.824;9.562;2023-12-14T10:23:27;10.80;84.60
12426;DHT22;6277;49.824;9.562;2023-12-14T10:25:53;10.80;84.50
12426;DHT22;6277;49.824;9.562;2023-12-14T10:28:19;10.80;84.50
12426;DHT22;6277;49.824;9.562;2023-12-14T10:30:44;10.80;84.50
12426;DHT22;6277;49.824;9.562;2023-12-14T10:33:10;10.80;84.60
12426;DHT22;6277;49.824;9.562;2023-12-14T10:35:35;10.80;84.60
12426;DHT22;6277;49.824;9.562;2023-12-14T10:38:05;10.80;84.50
12426;DHT22;6277;49.824;9.562;2023-12-14T10:40:33;10.80;84.50
12426;DHT22;6277;49.824;9.562;2023-12-14T10:43:00;10.80;84.40
12426;DHT22;6277;49.824;9.562;2023-12-14T10:45:32;10.80;84.40
12426;DHT22;6277;49.824;9.562;2023-12-14T10:47:59;10.80;84.30
12426;DHT22;6277;49.824;9.562;2023-12-14T10:50:28;10.80;84.50
12426;DHT22;6277;49.824;9.562;2023-12-14T10:52:54;10.80;84.50
12426;DHT22;6277;49.824;9.562;2023-12-14T10:55:46;10.80;84.60
12426;DHT22;6277;49.824;9.562;2023-12-14T10:58:11;10.80;84.30
12426;DHT22;6277;49.824;9.562;2023-12-14T11:00:38;10.80;84.60
12426;DHT22;6277;49.824;9.562;2023-12-14T11:03:07;10.90;84.70
12426;DHT22;6277;49.824;9.562;2023-12-14T11:05:35;10.90;84.60
12426;DHT22;6277;49.824;9.562;2023-12-14T11:08:03;10.90;84.30
12426;DHT22;6277;49.824;9.562;2023-12-14T11:10:39;10.90;84.30
12426;DHT22;6277;49.824;9.562;2023-12-14T11:13:09;10.90;84.00
12426;DHT22;6277;49.824;9.562;2023-12-14T11:15:36;10.90;84.10
12426;DHT22;6277;49.824;9.562;2023-12-14T11:23:12;10.90;83.90
12426;DHT22;6277;49.824;9.562;2023-12-14T11:25:40;10.90;84.00
12426;DHT22;6277;49.824;9.562;2023-12-14T11:28:09;10.90;84.00
12426;DHT22;6277;49.824;9.562;2023-12-14T11:30:36;10.80;83.80
12426;DHT22;6277;49.824;9.562;2023-12-14T11:33:02;10.80;84.00
12426;DHT22;6277;49.824;9.562;2023-12-14T11:35:28;10.80;84.00
12426;DHT22;6277;49.824;9.562;2023-12-14T11:37:54;10.80;84.00
12426;DHT22;6277;49.824;9.562;2023-12-14T11:40:23;10.80;84.10
12426;DHT22;6277;49.824;9.562;2023-12-14T11:43:04;10.80;84.00
12426;DHT22;6277;49.824;9.562;2023-12-14T11:45:34;10.70;83.80
12426;DHT22;6277;49.824;9.562;2023-12-14T11:48:01;10.70;84.10
12426;DHT22;6277;49.824;9.562;2023-12-14T11:50:30;10.70;84.10
12426;DHT22;6277;49.824;9.562;2023-12-14T11:52:56;10.70;84.20
12426;DHT22;6277;49.824;9.562;2023-12-14T11:55:21;10.70;84.10
12426;DHT22;6277;49.824;9.562;2023-12-14T11:57:47;10.80;84.10
12426;DHT22;6277;49.824;9.562;2023-12-14T12:00:14;10.80;83.90
12426;DHT22;6277;49.824;9.562;2023-12-14T12:02:40;10.80;83.90
12426;DHT22;6277;49.824;9.562;2023-12-14T12:05:06;10.80;83.80
12426;DHT22;6277;49.824;9.562;2023-12-14T12:07:32;10.70;83.60
12426;DHT22;6277;49.824;9.562;2023-12-14T12:09:59;10.70;83.40
12426;DHT22;6277;49.824;9.562;2023-12-14T12:12:24;10.70;83.50
12426;DHT22;6277;49.824;9.562;2023-12-14T12:14:50;10.70;83.30
12426;DHT22;6277;49.824;9.562;2023-12-14T12:17:18;10.70;83.50
12426;DHT22;6277;49.824;9.562;2023-12-14T12:19:45;10.70;83.60
12426;DHT22;6277;49.824;9.562;2023-12-14T12:22:11;10.70;83.60
12426;DHT22;6277;49.824;9.562;2023-12-14T12:24:36;10.70;83.60
12426;DHT22;6277;49.824;9.562;2023-12-14T12:27:03;10.70;83.70
12426;DHT22;6277;49.824;9.562;2023-12-14T12:29:29;10.70;83.80
12426;DHT22;6277;49.824;9.562;2023-12-14T12:31:55;10.80;84.00
12426;DHT22;6277;49.824;9.562;2023-12-14T12:34:21;10.80;84.00
12426;DHT22;6277;49.824;9.562;2023-12-14T12:36:46;10.90;84.10
12426;DHT22;6277;49.824;9.562;2023-12-14T12:39:12;10.90;83.90
12426;DHT22;6277;49.824;9.562;2023-12-14T12:41:38;11.00;83.80
12426;DHT22;6277;49.824;9.562;2023-12-14T12:44:04;11.00;83.50
12426;DHT22;6277;49.824;9.562;2023-12-14T12:46:35;11.00;83.30
12426;DHT22;6277;49.824;9.562;2023-12-14T12:49:04;11.00;82.90
12426;DHT22;6277;49.824;9.562;2023-12-14T12:51:31;11.00;82.90
12426;DHT22;6277;49.824;9.562;2023-12-14T12:53:58;11.00;82.90
12426;DHT22;6277;49.824;9.562;2023-12-14T12:56:25;10.90;82.80
12426;DHT22;6277;49.824;9.562;2023-12-14T12:58:51;10.90;83.00
12426;DHT22;6277;49.824;9.562;2023-12-14T13:01:20;10.90;83.10
12426;DHT22;6277;49.824;9.562;2023-12-14T13:03:46;10.90;83.10
12426;DHT22;6277;49.824;9.562;2023-12-14T13:06:11;10.80;83.00
12426;DHT22;6277;49.824;9.562;2023-12-14T13:08:37;10.80;83.00
12426;DHT22;6277;49.824;9.562;2023-12-14T13:11:03;10.80;83.10
12426;DHT22;6277;49.824;9.562;2023-12-14T13:13:29;10.80;83.00
12426;DHT22;6277;49.824;9.562;2023-12-14T13:15:56;10.80;82.90
12426;DHT22;6277;49.824;9.562;2023-12-14T13:18:22;10.80;82.80
12426;DHT22;6277;49.824;9.562;2023-12-14T13:20:47;10.80;82.70
12426;DHT22;6277;49.824;9.562;2023-12-14T13:23:13;10.70;82.40
12426;DHT22;6277;49.824;9.562;2023-12-14T13:25:39;10.70;81.90
12426;DHT22;6277;49.824;9.562;2023-12-14T13:28:04;10.70;82.10
12426;DHT22;6277;49.824;9.562;2023-12-14T13:30:30;10.60;82.30
12426;DHT22;6277;49.824;9.562;2023-12-14T13:32:56;10.60;82.40
12426;DHT22;6277;49.824;9.562;2023-12-14T13:35:21;10.60;82.60
12426;DHT22;6277;49.824;9.562;2023-12-14T13:37:50;10.60;82.60
12426;DHT22;6277;49.824;9.562;2023-12-14T13:40:15;10.60;82.40
12426;DHT22;6277;49.824;9.562;2023-12-14T13:42:42;10.60;82.50
12426;DHT22;6277;49.824;9.562;2023-12-14T13:45:08;10.60;82.50
12426;DHT22;6277;49.824;9.562;2023-12-14T13:47:34;10.60;82.50
12426;DHT22;6277;49.824;9.562;2023-12-14T13:49:59;10.60;82.70
12426;DHT22;6277;49.824;9.562;2023-12-14T13:52:25;10.60;82.70
12426;DHT22;6277;49.824;9.562;2023-12-14T13:54:50;10.60;82.90
12426;DHT22;6277;49.824;9.562;2023-12-14T13:57:17;10.70;82.80
12426;DHT22;6277;49.824;9.562;2023-12-14T13:59:42;10.70;82.60
12426;DHT22;6277;49.824;9.562;2023-12-14T14:02:08;10.70;82.50
12426;DHT22;6277;49.824;9.562;2023-12-14T14:04:33;10.70;82.30
12426;DHT22;6277;49.824;9.562;2023-12-14T14:06:59;10.70;81.80
12426;DHT22;6277;49.824;9.562;2023-12-14T14:09:24;10.70;81.90
12426;DHT22;6277;49.824;9.562;2023-12-14T14:11:51;10.70;82.00
12426;DHT22;6277;49.824;9.562;2023-12-14T14:14:16;10.70;82.00
12426;DHT22;6277;49.824;9.562;2023-12-14T14:16:42;10.70;81.90
12426;DHT22;6277;49.824;9.562;2023-12-14T14:19:07;10.70;81.70
12426;DHT22;6277;49.824;9.562;2023-12-14T14:21:33;10.70;81.50
12426;DHT22;6277;49.824;9.562;2023-12-14T14:23:59;10.70;81.50
12426;DHT22;6277;49.824;9.562;2023-12-14T14:26:24;10.60;81.40
12426;DHT22;6277;49.824;9.562;2023-12-14T14:28:50;10.60;81.50
12426;DHT22;6277;49.824;9.562;2023-12-14T14:31:15;10.60;81.50
12426;DHT22;6277;49.824;9.562;2023-12-14T14:33:41;10.60;81.50
12426;DHT22;6277;49.824;9.562;2023-12-14T14:36:06;10.60;81.40
12426;DHT22;6277;49.824;9.562;2023-12-14T14:38:33;10.60;81.40
12426;DHT22;6277;49.824;9.562;2023-12-14T14:40:59;10.60;81.50
12426;DHT22;6277;49.824;9.562;2023-12-14T14:43:25;10.60;81.40
12426;DHT22;6277;49.824;9.562;2023-12-14T14:45:50;10.60;81.20
12426;DHT22;6277;49.824;9.562;2023-12-14T14:48:16;10.60;81.10
12426;DHT22;6277;49.824;9.562;2023-12-14T14:50:42;10.60;81.10
12426;DHT22;6277;49.824;9.562;2023-12-14T14:53:08;10.50;81.20
12426;DHT22;6277;49.824;9.562;2023-12-14T14:55:33;10.50;81.30
12426;DHT22;6277;49.824;9.562;2023-12-14T14:58:00;10.50;81.40
12426;DHT22;6277;49.824;9.562;2023-12-14T15:00:25;10.50;81.40
12426;DHT22;6277;49.824;9.562;2023-12-14T15:02:52;10.60;81.40
12426;DHT22;6277;49.824;9.562;2023-12-14T15:05:17;10.60;81.30
12426;DHT22;6277;49.824;9.562;2023-12-14T15:07:43;10.50;81.20
12426;DHT22;6277;49.824;9.562;2023-12-14T15:10:08;10.50;81.10
12426;DHT22;6277;49.824;9.562;2023-12-14T15:12:34;10.50;81.40
12426;DHT22;6277;49.824;9.562;2023-12-14T15:15:00;10.50;80.80
12426;DHT22;6277;49.824;9.562;2023-12-14T15:17:25;10.50;80.70
12426;DHT22;6277;49.824;9.562;2023-12-14T15:19:51;10.40;80.70
12426;DHT22;6277;49.824;9.562;2023-12-14T15:22:17;10.40;80.80
12426;DHT22;6277;49.824;9.562;2023-12-14T15:24:43;10.40;81.00
12426;DHT22;6277;49.824;9.562;2023-12-14T15:27:08;10.40;81.00
12426;DHT22;6277;49.824;9.562;2023-12-14T15:29:34;10.40;80.90
12426;DHT22;6277;49.824;9.562;2023-12-14T15:32:00;10.30;81.00
12426;DHT22;6277;49.824;9.562;2023-12-14T15:34:25;10.30;80.90
12426;DHT22;6277;49.824;9.562;2023-12-14T15:36:51;10.30;81.00
12426;DHT22;6277;49.824;9.562;2023-12-14T15:39:16;10.30;80.90
12426;DHT22;6277;49.824;9.562;2023-12-14T15:41:42;10.30;81.00
12426;DHT22;6277;49.824;9.562;2023-12-14T15:44:08;10.20;81.00
12426;DHT22;6277;49.824;9.562;2023-12-14T15:46:34;10.20;81.60
12426;DHT22;6277;49.824;9.562;2023-12-14T15:48:59;10.20;81.00
12426;DHT22;6277;49.824;9.562;2023-12-14T15:51:25;10.20;81.00